createdAt,value
2023-04-02T00:00:03.252Z,24.19
2023-04-02T00:00:33.337Z,24.22
2023-04-02T00:01:03.420Z,24.20
2023-04-02T00:01:33.493Z,24.22
2023-04-02T00:02:03.614Z,24.19
2023-04-02T00:02:33.740Z,24.20
2023-04-02T00:03:03.882Z,24.22
2023-04-02T00:03:33.835Z,24.20
2023-04-02T00:04:03.784Z,24.20
2023-04-02T00:04:33.834Z,24.17
2023-04-02T00:05:03.931Z,24.19
2023-04-02T00:05:34.316Z,24.22
2023-04-02T00:06:04.001Z,24.20
2023-04-02T00:06:33.998Z,24.19
2023-04-02T00:07:04.041Z,24.17
2023-04-02T00:07:34.079Z,24.16
2023-04-02T00:08:04.124Z,24.17
2023-04-02T00:08:34.163Z,24.17
2023-04-02T00:09:04.215Z,24.19
2023-04-02T00:09:34.263Z,24.19
2023-04-02T00:10:04.303Z,24.17
2023-04-02T00:10:34.337Z,24.17
2023-04-02T00:11:04.400Z,24.17
2023-04-02T00:11:34.477Z,24.16
2023-04-02T00:12:04.502Z,24.19
2023-04-02T00:12:34.580Z,24.20
2023-04-02T00:13:04.676Z,24.22
2023-04-02T00:13:34.766Z,24.24
2023-04-02T00:14:04.888Z,24.24
2023-04-02T00:14:34.857Z,24.22
2023-04-02T00:15:04.939Z,24.20
2023-04-02T00:15:35.252Z,24.17
2023-04-02T00:16:05.158Z,24.17
2023-04-02T00:16:35.251Z,24.17
2023-04-02T00:17:05.260Z,24.17
2023-04-02T00:17:35.357Z,24.16
2023-04-02T00:18:05.446Z,24.19
2023-04-02T00:18:35.501Z,24.23
2023-04-02T00:19:05.606Z,24.23
2023-04-02T00:19:35.686Z,24.23
2023-04-02T00:20:05.773Z,24.27
2023-04-02T00:20:35.853Z,24.27
2023-04-02T00:21:05.942Z,24.29
2023-04-02T00:21:36.650Z,24.27
2023-04-02T00:22:06.092Z,24.27
2023-04-02T00:22:36.173Z,24.27
2023-04-02T00:23:06.283Z,24.30
2023-04-02T00:23:36.361Z,24.26
2023-04-02T00:24:06.450Z,24.26
2023-04-02T00:24:36.535Z,24.27
2023-04-02T00:25:06.631Z,24.26
2023-04-02T00:25:36.948Z,24.26
2023-04-02T00:26:06.731Z,24.24
2023-04-02T00:26:36.846Z,24.23
2023-04-02T00:27:06.813Z,24.26
2023-04-02T00:27:36.889Z,24.24
2023-04-02T00:28:06.972Z,24.27
2023-04-02T00:28:37.057Z,24.22
2023-04-02T00:29:07.167Z,24.20
2023-04-02T00:29:37.236Z,24.20
2023-04-02T00:30:07.312Z,24.22
2023-04-02T00:30:37.391Z,24.17
2023-04-02T00:31:07.480Z,24.19
2023-04-02T00:31:37.601Z,24.19
2023-04-02T00:32:07.695Z,24.17
2023-04-02T00:32:37.666Z,24.16
2023-04-02T00:33:07.911Z,24.17
2023-04-02T00:33:37.783Z,24.16
2023-04-02T00:34:07.874Z,24.16
2023-04-02T00:34:37.955Z,24.13
2023-04-02T00:35:08.044Z,24.15
2023-04-02T00:35:38.185Z,24.15
2023-04-02T00:36:08.187Z,24.16
2023-04-02T00:36:38.174Z,24.12
2023-04-02T00:37:08.253Z,24.12
2023-04-02T00:37:38.347Z,24.11
2023-04-02T00:38:08.439Z,24.08
2023-04-02T00:38:38.506Z,24.11
2023-04-02T00:39:08.606Z,24.08
2023-04-02T00:39:38.687Z,24.11
2023-04-02T00:40:08.779Z,24.09
2023-04-02T00:40:38.841Z,24.09
2023-04-02T00:41:08.923Z,24.11
2023-04-02T00:41:39.007Z,24.09
2023-04-02T00:42:09.098Z,24.09
2023-04-02T00:42:39.180Z,24.11
2023-04-02T00:43:09.258Z,24.11
2023-04-02T00:43:39.345Z,24.12
2023-04-02T00:44:09.431Z,24.09
2023-04-02T00:44:39.508Z,24.09
2023-04-02T00:45:09.605Z,24.08
2023-04-02T00:45:39.739Z,24.06
2023-04-02T00:46:09.872Z,24.06
2023-04-02T00:46:39.846Z,24.06
2023-04-02T00:47:09.910Z,24.04
2023-04-02T00:47:40.106Z,24.04
2023-04-02T00:48:10.126Z,24.04
2023-04-02T00:48:40.119Z,24.04
2023-04-02T00:49:10.186Z,24.05
2023-04-02T00:49:40.273Z,24.06
2023-04-02T00:50:10.353Z,24.05
2023-04-02T00:50:40.436Z,24.01
2023-04-02T00:51:10.528Z,24.06
2023-04-02T00:51:40.605Z,24.04
2023-04-02T00:52:10.682Z,24.06
2023-04-02T00:52:40.770Z,24.06
2023-04-02T00:53:10.848Z,24.06
2023-04-02T00:53:40.927Z,24.06
2023-04-02T00:54:11.037Z,24.06
2023-04-02T00:54:41.115Z,24.05
2023-04-02T00:55:11.194Z,24.02
2023-04-02T00:55:41.282Z,24.04
2023-04-02T00:56:11.356Z,24.04
2023-04-02T00:56:41.441Z,24.04
2023-04-02T00:57:11.589Z,24.08
2023-04-02T00:57:41.588Z,24.05
2023-04-02T00:58:11.672Z,24.09
2023-04-02T00:58:41.753Z,24.09
2023-04-02T00:59:11.835Z,24.09
2023-04-02T00:59:41.908Z,24.09
2023-04-02T01:00:12.018Z,24.13
2023-04-02T01:00:42.035Z,24.12
2023-04-02T01:01:12.152Z,24.13
2023-04-02T01:01:42.177Z,24.11
2023-04-02T01:02:12.215Z,24.12
2023-04-02T01:02:42.326Z,24.13
2023-04-02T01:03:12.481Z,24.15
2023-04-02T01:03:42.584Z,24.13
2023-04-02T01:04:12.521Z,24.13
2023-04-02T01:04:42.505Z,24.15
2023-04-02T01:05:12.546Z,24.16
2023-04-02T01:05:42.623Z,24.13
2023-04-02T01:06:12.685Z,24.16
2023-04-02T01:06:42.711Z,24.16
2023-04-02T01:07:12.752Z,24.13
2023-04-02T01:07:42.800Z,24.16
2023-04-02T01:08:12.828Z,24.15
2023-04-02T01:08:42.866Z,24.15
2023-04-02T01:09:12.914Z,24.13
2023-04-02T01:09:42.972Z,24.15
2023-04-02T01:10:13.017Z,24.12
2023-04-02T01:10:43.110Z,24.13
2023-04-02T01:11:13.142Z,24.13
2023-04-02T01:11:43.181Z,24.12
2023-04-02T01:12:13.227Z,24.11
2023-04-02T01:12:43.323Z,24.15
2023-04-02T01:13:13.399Z,24.13
2023-04-02T01:13:43.511Z,24.12
2023-04-02T01:14:13.587Z,24.15
2023-04-02T01:14:43.675Z,24.13
2023-04-02T01:15:13.753Z,24.13
2023-04-02T01:15:43.861Z,24.12
2023-04-02T01:16:14.027Z,24.13
2023-04-02T01:16:43.979Z,24.12
2023-04-02T01:17:14.069Z,24.15
2023-04-02T01:17:44.175Z,24.16
2023-04-02T01:18:14.249Z,24.17
2023-04-02T01:18:44.380Z,24.16
2023-04-02T01:19:14.334Z,24.16
2023-04-02T01:19:44.426Z,24.11
2023-04-02T01:20:14.504Z,24.11
2023-04-02T01:20:44.573Z,24.13
2023-04-02T01:21:14.653Z,24.15
2023-04-02T01:21:44.750Z,24.15
2023-04-02T01:22:14.835Z,24.15
2023-04-02T01:22:44.915Z,24.17
2023-04-02T01:23:15.006Z,24.16
2023-04-02T01:23:45.107Z,24.16
2023-04-02T01:24:15.100Z,24.19
2023-04-02T01:24:45.201Z,24.15
2023-04-02T01:25:15.277Z,24.13
2023-04-02T01:25:45.370Z,24.13
2023-04-02T01:26:15.449Z,24.15
2023-04-02T01:26:45.531Z,24.12
2023-04-02T01:27:15.627Z,24.11
2023-04-02T01:27:45.710Z,24.12
2023-04-02T01:28:15.706Z,24.13
2023-04-02T01:28:45.791Z,24.15
2023-04-02T01:29:15.880Z,24.12
2023-04-02T01:29:45.989Z,24.13
2023-04-02T01:30:16.078Z,24.16
2023-04-02T01:30:46.188Z,24.13
2023-04-02T01:31:16.297Z,24.16
2023-04-02T01:31:46.397Z,24.16
2023-04-02T01:32:16.317Z,24.13
2023-04-02T01:32:46.450Z,24.17
2023-04-02T01:33:16.424Z,24.19
2023-04-02T01:33:46.540Z,24.20
2023-04-02T01:34:16.621Z,24.19
2023-04-02T01:34:46.743Z,24.19
2023-04-02T01:35:16.718Z,24.19
2023-04-02T01:35:46.802Z,24.23
2023-04-02T01:36:16.898Z,24.17
2023-04-02T01:36:46.970Z,24.22
2023-04-02T01:37:17.057Z,24.23
2023-04-02T01:37:47.142Z,24.22
2023-04-02T01:38:17.225Z,24.23
2023-04-02T01:38:47.314Z,24.26
2023-04-02T01:39:17.401Z,24.23
2023-04-02T01:39:47.497Z,24.23
2023-04-02T01:40:17.596Z,24.27
2023-04-02T01:40:47.671Z,24.23
2023-04-02T01:41:17.758Z,24.23
2023-04-02T01:41:47.870Z,24.24
2023-04-02T01:42:17.938Z,24.26
2023-04-02T01:42:48.017Z,24.26
2023-04-02T01:43:18.097Z,24.23
2023-04-02T01:43:48.202Z,24.24
2023-04-02T01:44:18.306Z,24.26
2023-04-02T01:44:48.380Z,24.23
2023-04-02T01:45:18.470Z,24.22
2023-04-02T01:45:48.554Z,24.24
2023-04-02T01:46:18.699Z,24.22
2023-04-02T01:46:48.715Z,24.23
2023-04-02T01:47:18.693Z,24.26
2023-04-02T01:47:48.809Z,24.26
2023-04-02T01:48:18.795Z,24.27
2023-04-02T01:48:48.911Z,24.29
2023-04-02T01:49:18.979Z,24.27
2023-04-02T01:49:49.065Z,24.26
2023-04-02T01:50:19.160Z,24.24
2023-04-02T01:50:49.266Z,24.26
2023-04-02T01:51:19.339Z,24.26
2023-04-02T01:51:49.416Z,24.24
2023-04-02T01:52:19.526Z,24.26
2023-04-02T01:52:49.589Z,24.23
2023-04-02T01:53:19.680Z,24.20
2023-04-02T01:53:49.766Z,24.19
2023-04-02T01:54:19.863Z,24.20
2023-04-02T01:54:49.959Z,24.19
2023-04-02T01:55:20.039Z,24.15
2023-04-02T01:55:50.118Z,24.12
2023-04-02T01:56:20.208Z,24.16
2023-04-02T01:56:50.303Z,24.13
2023-04-02T01:57:20.396Z,24.12
2023-04-02T01:57:50.463Z,24.11
2023-04-02T01:58:20.553Z,24.08
2023-04-02T01:58:50.639Z,24.11
2023-04-02T01:59:20.886Z,24.08
2023-04-02T01:59:50.726Z,24.05
2023-04-02T02:00:50.943Z,24.02
2023-04-02T02:01:21.028Z,24.02
2023-04-02T02:01:50.992Z,24.04
2023-04-02T02:02:21.069Z,24.01
2023-04-02T02:02:51.144Z,23.98
2023-04-02T02:03:21.360Z,23.95
2023-04-02T02:03:51.285Z,23.96
2023-04-02T02:04:21.302Z,23.96
2023-04-02T02:04:51.351Z,23.98
2023-04-02T02:05:21.389Z,24.01
2023-04-02T02:05:51.426Z,23.99
2023-04-02T02:06:21.475Z,24.02
2023-04-02T02:06:51.504Z,24.02
2023-04-02T02:07:21.571Z,24.04
2023-04-02T02:07:51.611Z,24.02
2023-04-02T02:08:21.650Z,24.02
2023-04-02T02:08:51.688Z,24.05
2023-04-02T02:09:21.729Z,24.05
2023-04-02T02:09:51.779Z,24.02
2023-04-02T02:10:21.814Z,24.02
2023-04-02T02:10:51.826Z,24.05
2023-04-02T02:11:21.859Z,24.04
2023-04-02T02:11:51.899Z,24.06
2023-04-02T02:12:21.972Z,24.06
2023-04-02T02:12:52.059Z,24.08
2023-04-02T02:13:22.129Z,24.08
2023-04-02T02:13:52.221Z,24.09
2023-04-02T02:14:22.300Z,24.08
2023-04-02T02:14:52.489Z,24.05
2023-04-02T02:15:22.462Z,24.09
2023-04-02T02:15:52.544Z,24.09
2023-04-02T02:16:22.688Z,24.09
2023-04-02T02:16:52.653Z,24.11
2023-04-02T02:17:22.796Z,24.09
2023-04-02T02:17:52.876Z,24.09
2023-04-02T02:18:22.954Z,24.12
2023-04-02T02:18:53.035Z,24.11
2023-04-02T02:19:23.143Z,24.09
2023-04-02T02:19:53.204Z,24.08
2023-04-02T02:20:23.289Z,24.11
2023-04-02T02:20:53.373Z,24.06
2023-04-02T02:21:23.454Z,24.05
2023-04-02T02:21:53.522Z,24.06
2023-04-02T02:22:23.610Z,24.08
2023-04-02T02:22:53.698Z,24.08
2023-04-02T02:23:23.783Z,24.11
2023-04-02T02:23:53.859Z,24.08
2023-04-02T02:24:23.964Z,24.08
2023-04-02T02:24:54.050Z,24.11
2023-04-02T02:25:24.135Z,24.08
2023-04-02T02:25:54.224Z,24.06
2023-04-02T02:26:24.304Z,24.09
2023-04-02T02:26:54.387Z,24.05
2023-04-02T02:27:24.488Z,24.08
2023-04-02T02:27:54.540Z,24.09
2023-04-02T02:28:24.643Z,24.08
2023-04-02T02:28:54.728Z,24.05
2023-04-02T02:29:24.818Z,24.06
2023-04-02T02:29:54.896Z,24.08
2023-04-02T02:30:24.982Z,24.09
2023-04-02T02:30:55.073Z,24.08
2023-04-02T02:31:25.179Z,24.09
2023-04-02T02:31:55.401Z,24.09
2023-04-02T02:32:25.377Z,24.05
2023-04-02T02:32:55.387Z,24.06
2023-04-02T02:33:25.415Z,24.04
2023-04-02T02:33:55.410Z,24.02
2023-04-02T02:34:25.502Z,24.05
2023-04-02T02:34:55.618Z,24.08
2023-04-02T02:35:25.703Z,24.09
2023-04-02T02:35:55.792Z,24.09
2023-04-02T02:36:26.041Z,24.09
2023-04-02T02:36:55.951Z,24.11
2023-04-02T02:37:26.017Z,24.08
2023-04-02T02:37:56.099Z,24.08
2023-04-02T02:38:26.177Z,24.08
2023-04-02T02:38:56.281Z,24.09
2023-04-02T02:39:26.367Z,24.11
2023-04-02T02:39:56.444Z,24.11
2023-04-02T02:40:26.523Z,24.12
2023-04-02T02:40:56.616Z,24.13
2023-04-02T02:41:26.691Z,24.15
2023-04-02T02:41:56.777Z,24.12
2023-04-02T02:42:26.861Z,24.15
2023-04-02T02:42:56.936Z,24.12
2023-04-02T02:43:27.026Z,24.16
2023-04-02T02:43:57.371Z,24.12
2023-04-02T02:44:27.119Z,24.13
2023-04-02T02:45:27.242Z,24.13
2023-04-02T02:45:57.371Z,24.12
2023-04-02T02:46:27.391Z,24.13
2023-04-02T02:46:57.349Z,24.16
2023-04-02T02:47:27.493Z,24.16
2023-04-02T02:47:57.511Z,24.13
2023-04-02T02:48:27.465Z,24.15
2023-04-02T02:48:57.554Z,24.13
2023-04-02T02:49:27.635Z,24.15
2023-04-02T02:49:58.994Z,24.13
2023-04-02T02:50:27.815Z,24.15
2023-04-02T02:50:57.866Z,24.16
2023-04-02T02:51:27.965Z,24.15
2023-04-02T02:51:58.057Z,24.13
2023-04-02T02:52:28.138Z,24.13
2023-04-02T02:52:58.208Z,24.13
2023-04-02T02:53:28.300Z,24.15
2023-04-02T02:53:58.383Z,24.15
2023-04-02T02:54:28.465Z,24.15
2023-04-02T02:54:58.549Z,24.15
2023-04-02T02:55:28.636Z,24.12
2023-04-02T02:55:58.722Z,24.11
2023-04-02T02:56:28.807Z,24.15
2023-04-02T02:56:58.905Z,24.17
2023-04-02T02:57:29.132Z,24.16
2023-04-02T02:57:59.025Z,24.15
2023-04-02T02:58:29.099Z,24.17
2023-04-02T02:58:59.178Z,24.17
2023-04-02T02:59:29.278Z,24.17
2023-04-02T02:59:59.373Z,24.19
2023-04-02T03:00:29.471Z,24.19
2023-04-02T03:00:59.561Z,24.16
2023-04-02T03:01:29.691Z,24.19
2023-04-02T03:01:59.662Z,24.20
2023-04-02T03:03:08.936Z,24.16
2023-04-02T03:03:38.973Z,24.15
2023-04-02T03:04:09.321Z,24.19
2023-04-02T03:04:39.031Z,24.17
2023-04-02T03:05:09.074Z,24.13
2023-04-02T03:05:39.137Z,24.13
2023-04-02T03:06:09.164Z,24.13
2023-04-02T03:06:39.201Z,24.11
2023-04-02T03:07:09.245Z,24.12
2023-04-02T03:07:39.287Z,24.13
2023-04-02T03:08:09.331Z,24.13
2023-04-02T03:08:39.375Z,24.12
2023-04-02T03:09:09.411Z,24.16
2023-04-02T03:09:39.455Z,24.17
2023-04-02T03:10:09.499Z,24.15
2023-04-02T03:10:39.543Z,24.16
2023-04-02T03:11:09.580Z,24.15
2023-04-02T03:11:39.614Z,24.20
2023-04-02T03:12:09.659Z,24.20
2023-04-02T03:12:39.707Z,24.22
2023-04-02T03:13:09.792Z,24.19
2023-04-02T03:13:39.861Z,24.16
2023-04-02T03:14:09.960Z,24.16
2023-04-02T03:14:40.053Z,24.19
2023-04-02T03:15:10.121Z,24.17
2023-04-02T03:15:40.229Z,24.15
2023-04-02T03:16:10.331Z,24.16
2023-04-02T03:16:40.426Z,24.17
2023-04-02T03:17:10.498Z,24.20
2023-04-02T03:17:40.632Z,24.16
2023-04-02T03:18:10.576Z,24.19
2023-04-02T03:18:40.657Z,24.17
2023-04-02T03:19:10.739Z,24.16
2023-04-02T03:19:40.831Z,24.13
2023-04-02T03:20:10.910Z,24.11
2023-04-02T03:20:40.988Z,24.08
2023-04-02T03:21:11.100Z,24.11
2023-04-02T03:21:41.164Z,24.11
2023-04-02T03:22:11.237Z,24.11
2023-04-02T03:22:41.315Z,24.11
2023-04-02T03:23:11.411Z,24.09
2023-04-02T03:23:41.498Z,24.09
2023-04-02T03:24:11.572Z,24.09
2023-04-02T03:24:41.656Z,24.08
2023-04-02T03:25:11.751Z,24.06
2023-04-02T03:25:41.820Z,24.08
2023-04-02T03:26:11.894Z,24.08
2023-04-02T03:26:41.974Z,24.08
2023-04-02T03:27:12.050Z,24.06
2023-04-02T03:27:42.140Z,24.11
2023-04-02T03:28:12.216Z,24.06
2023-04-02T03:28:42.287Z,24.08
2023-04-02T03:29:12.376Z,24.05
2023-04-02T03:29:42.468Z,24.06
2023-04-02T03:30:12.555Z,24.05
2023-04-02T03:30:42.634Z,24.06
2023-04-02T03:31:12.808Z,24.08
2023-04-02T03:31:42.903Z,24.06
2023-04-02T03:32:12.886Z,24.09
2023-04-02T03:32:42.976Z,24.08
2023-04-02T03:33:12.965Z,24.05
2023-04-02T03:33:43.051Z,24.08
2023-04-02T03:34:13.141Z,24.08
2023-04-02T03:34:43.219Z,24.05
2023-04-02T03:35:13.297Z,24.06
2023-04-02T03:35:43.416Z,24.06
2023-04-02T03:36:13.428Z,24.05
2023-04-02T03:37:13.408Z,24.08
2023-04-02T03:37:43.505Z,24.08
2023-04-02T03:38:13.576Z,24.11
2023-04-02T03:38:43.661Z,24.08
2023-04-02T03:39:13.732Z,24.06
2023-04-02T03:39:43.805Z,24.09
2023-04-02T03:40:13.893Z,24.08
2023-04-02T03:40:43.978Z,24.08
2023-04-02T03:41:14.059Z,24.08
2023-04-02T03:41:44.142Z,24.09
2023-04-02T03:42:14.221Z,24.11
2023-04-02T03:42:44.310Z,24.09
2023-04-02T03:43:14.399Z,24.09
2023-04-02T03:43:44.472Z,24.11
2023-04-02T03:44:14.566Z,24.11
2023-04-02T03:44:44.663Z,24.11
2023-04-02T03:45:14.741Z,24.06
2023-04-02T03:45:44.821Z,24.06
2023-04-02T03:46:14.951Z,24.04
2023-04-02T03:46:44.999Z,24.06
2023-04-02T03:47:14.972Z,24.06
2023-04-02T03:47:45.060Z,24.06
2023-04-02T03:48:15.157Z,24.05
2023-04-02T03:48:45.235Z,24.08
2023-04-02T03:49:15.336Z,24.09
2023-04-02T03:49:45.430Z,24.09
2023-04-02T03:50:15.497Z,24.08
2023-04-02T03:50:45.589Z,24.08
2023-04-02T03:51:15.700Z,24.08
2023-04-02T03:51:45.759Z,24.05
2023-04-02T03:52:15.826Z,24.11
2023-04-02T03:52:45.911Z,24.08
2023-04-02T03:53:15.997Z,24.09
2023-04-02T03:53:46.109Z,24.09
2023-04-02T03:54:16.187Z,24.09
2023-04-02T03:54:53.526Z,24.08
2023-04-02T03:55:16.339Z,24.08
2023-04-02T03:55:46.436Z,24.12
2023-04-02T03:56:16.518Z,24.09
2023-04-02T03:56:46.620Z,24.08
2023-04-02T03:57:16.738Z,24.11
2023-04-02T03:57:46.729Z,24.09
2023-04-02T03:58:16.816Z,24.11
2023-04-02T03:58:46.896Z,24.11
2023-04-02T03:59:16.978Z,24.12
2023-04-02T03:59:47.410Z,24.09
2023-04-02T04:00:17.113Z,24.12
2023-04-02T04:00:47.184Z,24.13
2023-04-02T04:01:17.258Z,24.15
2023-04-02T04:01:47.388Z,24.12
2023-04-02T04:02:17.367Z,24.12
2023-04-02T04:02:47.527Z,24.12
2023-04-02T04:03:17.452Z,24.09
2023-04-02T04:03:47.541Z,24.09
2023-04-02T04:04:17.609Z,24.11
2023-04-02T04:04:47.655Z,24.08
2023-04-02T04:05:17.725Z,24.08
2023-04-02T04:05:47.746Z,24.05
2023-04-02T04:06:19.125Z,24.01
2023-04-02T04:06:47.884Z,24.05
2023-04-02T04:07:17.925Z,24.04
2023-04-02T04:07:47.957Z,24.05
2023-04-02T04:08:18.000Z,24.06
2023-04-02T04:08:48.031Z,24.08
2023-04-02T04:09:18.079Z,24.05
2023-04-02T04:09:48.110Z,24.06
2023-04-02T04:10:18.178Z,24.04
2023-04-02T04:10:48.225Z,24.01
2023-04-02T04:11:18.315Z,24.05
2023-04-02T04:11:48.384Z,24.05
2023-04-02T04:12:18.433Z,24.06
2023-04-02T04:12:48.491Z,24.08
2023-04-02T04:13:18.554Z,24.09
2023-04-02T04:13:48.636Z,24.08
2023-04-02T04:14:18.734Z,24.06
2023-04-02T04:14:48.808Z,24.06
2023-04-02T04:15:18.886Z,24.06
2023-04-02T04:15:48.973Z,24.05
2023-04-02T04:16:19.090Z,24.06
2023-04-02T04:16:49.182Z,24.09
2023-04-02T04:17:19.159Z,24.11
2023-04-02T04:17:49.246Z,24.09
2023-04-02T04:18:19.346Z,24.06
2023-04-02T04:18:49.417Z,24.06
2023-04-02T04:19:19.513Z,24.08
2023-04-02T04:19:49.589Z,24.11
2023-04-02T04:20:19.672Z,24.06
2023-04-02T04:20:49.765Z,24.08
2023-04-02T04:21:19.881Z,24.06
2023-04-02T04:21:49.938Z,24.08
2023-04-02T04:22:20.033Z,24.06
2023-04-02T04:22:50.104Z,24.08
2023-04-02T04:23:20.204Z,24.06
2023-04-02T04:23:50.286Z,24.09
2023-04-02T04:24:20.404Z,24.09
2023-04-02T04:24:50.344Z,24.09
2023-04-02T04:25:20.435Z,24.08
2023-04-02T04:25:50.528Z,24.08
2023-04-02T04:26:20.620Z,24.05
2023-04-02T04:26:50.711Z,24.02
2023-04-02T04:27:20.802Z,24.04
2023-04-02T04:27:50.878Z,24.02
2023-04-02T04:28:20.962Z,24.05
2023-04-02T04:28:51.035Z,24.05
2023-04-02T04:29:21.112Z,24.11
2023-04-02T04:29:51.201Z,24.09
2023-04-02T04:30:21.297Z,24.08
2023-04-02T04:30:51.437Z,24.08
2023-04-02T04:31:23.405Z,24.09
2023-04-02T04:31:51.409Z,24.11
2023-04-02T04:32:21.529Z,24.09
2023-04-02T04:32:51.641Z,24.12
2023-04-02T04:33:21.620Z,24.11
2023-04-02T04:33:51.683Z,24.11
2023-04-02T04:34:21.762Z,24.12
2023-04-02T04:34:51.850Z,24.11
2023-04-02T04:35:21.948Z,24.11
2023-04-02T04:35:52.042Z,24.15
2023-04-02T04:36:22.044Z,24.12
2023-04-02T04:36:52.110Z,24.11
2023-04-02T04:37:22.189Z,24.13
2023-04-02T04:37:52.260Z,24.13
2023-04-02T04:38:22.351Z,24.12
2023-04-02T04:38:52.429Z,24.15
2023-04-02T04:39:22.523Z,24.16
2023-04-02T04:39:52.625Z,24.16
2023-04-02T04:40:22.705Z,24.17
2023-04-02T04:40:52.792Z,24.15
2023-04-02T04:41:22.876Z,24.19
2023-04-02T04:41:52.957Z,24.19
2023-04-02T04:42:23.061Z,24.19
2023-04-02T04:42:53.123Z,24.19
2023-04-02T04:43:23.204Z,24.22
2023-04-02T04:43:53.297Z,24.19
2023-04-02T04:44:23.414Z,24.16
2023-04-02T04:44:53.491Z,24.20
2023-04-02T04:45:23.618Z,24.19
2023-04-02T04:45:53.617Z,24.19
2023-04-02T04:46:23.692Z,24.17
2023-04-02T04:46:53.697Z,24.17
2023-04-02T04:47:23.781Z,24.12
2023-04-02T04:47:53.856Z,24.16
2023-04-02T04:48:23.850Z,24.12
2023-04-02T04:48:53.851Z,24.13
2023-04-02T04:49:23.870Z,24.15
2023-04-02T04:49:53.963Z,24.13
2023-04-02T04:50:24.047Z,24.11
2023-04-02T04:50:54.143Z,24.12
2023-04-02T04:51:24.220Z,24.08
2023-04-02T04:51:54.331Z,24.11
2023-04-02T04:52:24.392Z,24.06
2023-04-02T04:52:54.486Z,24.08
2023-04-02T04:53:24.568Z,24.08
2023-04-02T04:53:54.651Z,24.09
2023-04-02T04:54:24.741Z,24.06
2023-04-02T04:54:54.810Z,24.06
2023-04-02T04:55:24.897Z,24.06
2023-04-02T04:55:54.992Z,24.02
2023-04-02T04:56:25.092Z,24.01
2023-04-02T04:56:55.181Z,24.02
2023-04-02T04:57:25.207Z,24.01
2023-04-02T04:57:55.245Z,24.02
2023-04-02T04:58:25.335Z,23.99
2023-04-02T04:58:55.423Z,24.06
2023-04-02T04:59:25.496Z,24.02
2023-04-02T04:59:55.585Z,23.99
2023-04-02T05:00:25.677Z,24.01
2023-04-02T05:00:55.768Z,24.01
2023-04-02T05:01:25.867Z,23.99
2023-04-02T05:01:56.018Z,24.02
2023-04-02T05:02:26.078Z,24.02
2023-04-02T05:02:56.156Z,24.01
2023-04-02T05:03:26.195Z,24.02
2023-04-02T05:03:56.218Z,24.01
2023-04-02T05:04:26.324Z,23.98
2023-04-02T05:04:56.411Z,24.01
2023-04-02T05:05:26.452Z,23.98
2023-04-02T05:05:56.487Z,24.01
2023-04-02T05:06:26.525Z,24.02
2023-04-02T05:06:56.595Z,23.98
2023-04-02T05:07:26.612Z,23.99
2023-04-02T05:07:57.932Z,24.01
2023-04-02T05:08:26.683Z,23.99
2023-04-02T05:08:56.703Z,23.98
2023-04-02T05:09:26.762Z,23.96
2023-04-02T05:09:56.826Z,23.99
2023-04-02T05:10:26.861Z,23.95
2023-04-02T05:10:56.913Z,23.99
2023-04-02T05:11:26.954Z,23.99
2023-04-02T05:11:56.996Z,23.98
2023-04-02T05:12:27.096Z,23.99
2023-04-02T05:12:57.150Z,23.96
2023-04-02T05:13:27.232Z,24.01
2023-04-02T05:13:57.312Z,24.01
2023-04-02T05:14:27.434Z,24.02
2023-04-02T05:14:57.505Z,24.04
2023-04-02T05:15:27.588Z,24.02
2023-04-02T05:15:59.471Z,24.01
2023-04-02T05:16:27.776Z,24.04
2023-04-02T05:16:57.848Z,24.02
2023-04-02T05:17:27.953Z,23.99
2023-04-02T05:17:58.064Z,23.98
2023-04-02T05:18:28.035Z,24.01
2023-04-02T05:18:58.130Z,23.99
2023-04-02T05:19:28.206Z,24.02
2023-04-02T05:19:58.285Z,24.02
2023-04-02T05:20:28.372Z,24.04
2023-04-02T05:20:58.466Z,24.01
2023-04-02T05:21:28.538Z,24.02
2023-04-02T05:21:58.657Z,24.02
2023-04-02T05:22:28.724Z,24.01
2023-04-02T05:22:58.816Z,24.04
2023-04-02T05:23:28.889Z,24.02
2023-04-02T05:23:58.973Z,24.02
2023-04-02T05:24:29.062Z,24.06
2023-04-02T05:24:59.148Z,24.05
2023-04-02T05:25:29.242Z,24.05
2023-04-02T05:25:59.322Z,24.05
2023-04-02T05:26:29.409Z,24.04
2023-04-02T05:26:59.480Z,24.05
2023-04-02T05:27:29.603Z,24.04
2023-04-02T05:27:59.598Z,23.99
2023-04-02T05:28:29.686Z,24.05
2023-04-02T05:28:59.805Z,24.04
2023-04-02T05:29:29.761Z,24.02
2023-04-02T05:29:59.856Z,24.04
2023-04-02T05:30:29.938Z,24.05
2023-04-02T05:31:00.056Z,24.01
2023-04-02T05:31:30.131Z,24.04
2023-04-02T05:32:00.125Z,24.04
2023-04-02T05:32:30.226Z,24.01
2023-04-02T05:33:00.365Z,24.02
2023-04-02T05:33:30.359Z,24.05
2023-04-02T05:34:00.436Z,24.02
2023-04-02T05:34:30.526Z,24.04
2023-04-02T05:35:00.626Z,24.01
2023-04-02T05:35:30.700Z,24.02
2023-04-02T05:36:00.806Z,24.06
2023-04-02T05:36:30.868Z,24.04
2023-04-02T05:37:00.951Z,24.05
2023-04-02T05:37:31.075Z,24.06
2023-04-02T05:38:01.150Z,24.02
2023-04-02T05:38:31.245Z,24.06
2023-04-02T05:39:01.335Z,24.01
2023-04-02T05:39:31.427Z,24.02
2023-04-02T05:40:01.511Z,24.02
2023-04-02T05:40:31.590Z,24.01
2023-04-02T05:41:01.667Z,24.01
2023-04-02T05:41:31.752Z,23.99
2023-04-02T05:42:01.850Z,23.99
2023-04-02T05:42:31.932Z,23.98
2023-04-02T05:43:02.022Z,23.96
2023-04-02T05:43:32.112Z,23.95
2023-04-02T05:44:02.222Z,23.96
2023-04-02T05:44:32.309Z,23.99
2023-04-02T05:45:02.389Z,23.99
2023-04-02T05:45:32.463Z,24.02
2023-04-02T05:46:02.519Z,24.01
2023-04-02T05:46:32.677Z,23.99
2023-04-02T05:47:02.686Z,23.99
2023-04-02T05:47:32.790Z,23.99
2023-04-02T05:48:02.980Z,23.96
2023-04-02T05:48:32.963Z,23.96
2023-04-02T05:49:03.041Z,23.96
2023-04-02T05:49:33.121Z,23.98
2023-04-02T05:50:03.203Z,23.96
2023-04-02T05:50:33.288Z,23.98
2023-04-02T05:51:03.374Z,23.98
2023-04-02T05:51:33.460Z,23.98
2023-04-02T05:52:03.547Z,24.01
2023-04-02T05:52:33.653Z,23.99
2023-04-02T05:53:03.720Z,23.96
2023-04-02T05:53:33.808Z,23.96
2023-04-02T05:54:03.887Z,23.98
2023-04-02T05:54:33.977Z,23.96
2023-04-02T05:55:04.067Z,23.99
2023-04-02T05:55:34.387Z,24.01
2023-04-02T05:56:04.227Z,24.02
2023-04-02T05:56:34.305Z,24.01
2023-04-02T05:57:04.433Z,24.02
2023-04-02T05:57:44.594Z,24.02
2023-04-02T05:58:29.420Z,24.02
2023-04-02T05:58:36.583Z,24.01
2023-04-02T05:59:04.591Z,24.04
2023-04-02T05:59:34.714Z,24.02
2023-04-02T06:00:04.692Z,24.02
2023-04-02T06:00:34.765Z,24.02
2023-04-02T06:01:04.855Z,23.99
2023-04-02T06:01:34.918Z,23.99
2023-04-02T06:02:05.045Z,23.99
2023-04-02T06:02:35.240Z,23.99
2023-04-02T06:03:05.158Z,23.98
2023-04-02T06:03:35.170Z,23.98
2023-04-02T06:04:05.280Z,23.99
2023-04-02T06:04:35.207Z,23.98
2023-04-02T06:05:05.254Z,24.02
2023-04-02T06:05:35.457Z,23.98
2023-04-02T06:06:05.382Z,23.96
2023-04-02T06:06:35.425Z,23.99
2023-04-02T06:07:05.462Z,24.02
2023-04-02T06:07:35.513Z,23.99
2023-04-02T06:08:05.566Z,23.98
2023-04-02T06:08:35.576Z,23.98
2023-04-02T06:09:05.616Z,24.02
2023-04-02T06:09:35.662Z,24.02
2023-04-02T06:10:05.704Z,24.01
2023-04-02T06:10:35.747Z,24.02
2023-04-02T06:11:05.793Z,24.02
2023-04-02T06:11:35.829Z,24.02
2023-04-02T06:12:05.886Z,24.02
2023-04-02T06:12:35.900Z,24.02
2023-04-02T06:13:05.909Z,24.02
2023-04-02T06:13:36.069Z,24.01
2023-04-02T06:14:06.027Z,24.01
2023-04-02T06:14:36.105Z,24.01
2023-04-02T06:15:06.175Z,24.02
2023-04-02T06:15:36.537Z,24.01
2023-04-02T06:16:06.263Z,23.98
2023-04-02T06:16:36.390Z,23.99
2023-04-02T06:17:06.349Z,24.01
2023-04-02T06:17:36.439Z,24.04
2023-04-02T06:18:06.613Z,24.01
2023-04-02T06:18:36.645Z,24.02
2023-04-02T06:19:06.723Z,24.01
2023-04-02T06:19:36.807Z,24.04
2023-04-02T06:20:06.893Z,24.05
2023-04-02T06:20:36.983Z,24.09
2023-04-02T06:21:07.066Z,24.06
2023-04-02T06:21:37.147Z,24.04
2023-04-02T06:22:07.246Z,24.06
2023-04-02T06:22:37.344Z,24.06
2023-04-02T06:23:07.452Z,24.08
2023-04-02T06:23:37.511Z,24.08
2023-04-02T06:24:07.604Z,24.12
2023-04-02T06:24:37.688Z,24.08
2023-04-02T06:25:07.758Z,24.09
2023-04-02T06:25:38.149Z,24.08
2023-04-02T06:26:07.908Z,24.08
2023-04-02T06:26:37.989Z,24.08
2023-04-02T06:27:08.076Z,24.06
2023-04-02T06:27:38.157Z,24.06
2023-04-02T06:28:08.232Z,24.09
2023-04-02T06:28:38.331Z,24.11
2023-04-02T06:29:08.411Z,24.09